createdAt,value
2018-05-09T00:00:04.343Z,50.06
2018-05-09T00:00:30.480Z,49.96
2018-05-09T00:00:56.698Z,49.96
2018-05-09T00:01:22.835Z,50.06
2018-05-09T00:01:48.997Z,49.96
2018-05-09T00:02:15.140Z,50.06
2018-05-09T00:02:41.282Z,50.15
2018-05-09T00:03:07.421Z,49.87
2018-05-09T00:03:33.567Z,49.6
2018-05-09T00:03:59.711Z,49.6
2018-05-09T00:04:25.847Z,49.51
2018-05-09T00:04:51.990Z,49.32
2018-05-09T00:05:18.126Z,49.51
2018-05-09T00:05:44.269Z,49.7
2018-05-09T00:06:10.415Z,49.51
2018-05-09T00:06:36.576Z,49.51
2018-05-09T00:07:02.717Z,49.12
2018-05-09T00:07:28.858Z,49.32
2018-05-09T00:07:54.994Z,49.22
2018-05-09T00:08:21.134Z,48.74
2018-05-09T00:08:47.273Z,49.12
2018-05-09T00:09:13.442Z,49.12
2018-05-09T00:09:39.573Z,49.02
2018-05-09T00:10:05.742Z,49.32
2018-05-09T00:10:31.906Z,49.12
2018-05-09T00:10:58.047Z,49.02
2018-05-09T00:11:24.191Z,48.74
2018-05-09T00:11:50.333Z,49.32
2018-05-09T00:12:16.479Z,49.02
2018-05-09T00:12:42.643Z,49.02
2018-05-09T00:13:08.810Z,49.02
2018-05-09T00:13:34.947Z,49.22
2018-05-09T00:14:01.087Z,49.02
2018-05-09T00:14:27.303Z,49.02
2018-05-09T00:14:53.392Z,49.02
2018-05-09T00:15:19.527Z,48.74
2018-05-09T00:15:45.671Z,48.93
2018-05-09T00:16:11.833Z,48.83
2018-05-09T00:16:37.974Z,48.93
2018-05-09T00:17:04.137Z,48.74
2018-05-09T00:17:30.271Z,48.93
2018-05-09T00:17:56.434Z,48.93
2018-05-09T00:18:22.578Z,48.64
2018-05-09T00:18:48.715Z,48.83
2018-05-09T00:19:14.855Z,48.83
2018-05-09T00:19:40.999Z,48.83
2018-05-09T00:20:07.167Z,48.74
2018-05-09T00:20:33.308Z,48.93
2018-05-09T00:20:59.466Z,48.83
2018-05-09T00:21:25.611Z,48.83
2018-05-09T00:21:51.772Z,49.02
2018-05-09T00:22:17.925Z,49.02
2018-05-09T00:22:44.087Z,49.22
2018-05-09T00:23:10.234Z,49.41
2018-05-09T00:23:36.388Z,49.51
2018-05-09T00:24:02.558Z,49.32
2018-05-09T00:24:28.723Z,49.6
2018-05-09T00:24:54.862Z,49.32
2018-05-09T00:25:21.006Z,49.6
2018-05-09T00:25:47.173Z,49.12
2018-05-09T00:26:13.322Z,49.12
2018-05-09T00:26:39.471Z,49.6
2018-05-09T00:27:05.638Z,49.32
2018-05-09T00:27:31.775Z,49.32
2018-05-09T00:27:57.919Z,49.32
2018-05-09T00:28:24.058Z,49.22
2018-05-09T00:28:50.204Z,49.22
2018-05-09T00:29:16.346Z,49.51
2018-05-09T00:29:42.488Z,49.7
2018-05-09T00:30:08.629Z,49.41
2018-05-09T00:30:34.768Z,49.6
2018-05-09T00:31:00.905Z,49.51
2018-05-09T00:31:27.093Z,49.41
2018-05-09T00:31:53.234Z,49.7
2018-05-09T00:32:19.383Z,49.6
2018-05-09T00:32:45.546Z,49.51
2018-05-09T00:33:11.684Z,49.29
2018-05-09T00:33:37.822Z,50.15
2018-05-09T00:34:03.991Z,50.25
2018-05-09T00:34:30.132Z,50.06
2018-05-09T00:34:56.296Z,50.45
2018-05-09T00:35:22.439Z,49.96
2018-05-09T00:35:48.587Z,50.47
2018-05-09T00:36:14.723Z,50.25
2018-05-09T00:36:40.866Z,50.06
2018-05-09T00:37:07.001Z,50.25
2018-05-09T00:37:33.137Z,50.15
2018-05-09T00:37:59.272Z,50.25
2018-05-09T00:38:25.416Z,50.35
2018-05-09T00:38:51.557Z,50.06
2018-05-09T00:39:17.701Z,50.35
2018-05-09T00:39:43.840Z,50.25
2018-05-09T00:40:10.000Z,50.73
2018-05-09T00:40:36.141Z,50.54
2018-05-09T00:41:02.276Z,50.35
2018-05-09T00:41:28.418Z,50.73
2018-05-09T00:41:54.580Z,50.83
2018-05-09T00:42:20.718Z,50.83
2018-05-09T00:42:46.855Z,50.73
2018-05-09T00:43:13.004Z,50.73
2018-05-09T00:43:39.141Z,50.93
2018-05-09T00:44:05.282Z,50.63
2018-05-09T00:44:31.421Z,50.45
2018-05-09T00:44:57.591Z,50.83
2018-05-09T00:45:23.728Z,50.93
2018-05-09T00:45:49.869Z,51.31
2018-05-09T00:46:16.004Z,51.19
2018-05-09T00:46:42.165Z,51.67
2018-05-09T00:47:08.311Z,51.38
2018-05-09T00:47:34.486Z,51.19
2018-05-09T00:48:00.660Z,51.29
2018-05-09T00:48:26.795Z,51.86
2018-05-09T00:48:52.956Z,51.57
2018-05-09T00:49:19.114Z,52.44
2018-05-09T00:49:45.261Z,52.44
2018-05-09T00:50:11.497Z,52.25
2018-05-09T00:50:37.561Z,52.25
2018-05-09T00:51:03.703Z,52.06
2018-05-09T00:51:29.841Z,52.06
2018-05-09T00:51:55.978Z,52.15
2018-05-09T00:52:22.123Z,52.06
2018-05-09T00:52:48.262Z,52.54
2018-05-09T00:53:14.401Z,52.15
2018-05-09T00:53:40.562Z,52.25
2018-05-09T00:54:06.705Z,52.34
2018-05-09T00:54:32.839Z,52.63
2018-05-09T00:54:58.985Z,52.44
2018-05-09T00:55:25.126Z,52.25
2018-05-09T00:55:51.272Z,52.06
2018-05-09T00:56:17.431Z,52.61
2018-05-09T00:56:43.575Z,52.99
2018-05-09T00:57:09.708Z,52.89
2018-05-09T00:57:35.871Z,52.99
2018-05-09T00:58:02.009Z,52.92
2018-05-09T00:58:28.154Z,52.89
2018-05-09T00:58:54.291Z,52.99
2018-05-09T00:59:20.430Z,52.89
2018-05-09T00:59:46.569Z,52.8
2018-05-09T01:00:12.735Z,53.66
2018-05-09T01:00:38.868Z,53.66
2018-05-09T01:01:04.999Z,53.09
2018-05-09T01:01:31.191Z,53.66
2018-05-09T01:01:57.333Z,53.86
2018-05-09T01:02:23.477Z,53.47
2018-05-09T01:02:49.613Z,53.86
2018-05-09T01:03:15.746Z,53.96
2018-05-09T01:03:41.885Z,54.43
2018-05-09T01:04:08.026Z,54.12
2018-05-09T01:04:34.171Z,54.02
2018-05-09T01:05:00.311Z,54.12
2018-05-09T01:05:26.459Z,54.12
2018-05-09T01:05:52.617Z,54.6
2018-05-09T01:06:18.760Z,54.6
2018-05-09T01:06:44.893Z,54.41
2018-05-09T01:07:11.064Z,54.79
2018-05-09T01:07:37.193Z,54.69
2018-05-09T01:08:03.343Z,54.69
2018-05-09T01:08:29.589Z,54.79
2018-05-09T01:08:55.617Z,55.18
2018-05-09T01:09:21.754Z,54.79
2018-05-09T01:09:47.899Z,55.08
2018-05-09T01:10:14.053Z,55.08
2018-05-09T01:10:40.189Z,54.99
2018-05-09T01:11:06.328Z,55.37
2018-05-09T01:11:32.473Z,55.27
2018-05-09T01:11:58.633Z,55.08
2018-05-09T01:12:24.801Z,55.08
2018-05-09T01:12:50.966Z,55.08
2018-05-09T01:13:17.154Z,55.37
2018-05-09T01:13:43.287Z,55.27
2018-05-09T01:14:09.429Z,55.27
2018-05-09T01:14:35.572Z,55.08
2018-05-09T01:15:01.713Z,55.66
2018-05-09T01:15:27.877Z,55.08
2018-05-09T01:15:54.043Z,55.37
2018-05-09T01:16:20.183Z,55.18
2018-05-09T01:16:46.323Z,55.27
2018-05-09T01:17:12.489Z,55.18
2018-05-09T01:17:38.655Z,55.27
2018-05-09T01:18:04.814Z,55.27
2018-05-09T01:18:30.959Z,55.08
2018-05-09T01:18:57.094Z,55.18
2018-05-09T01:19:23.233Z,55.27
2018-05-09T01:19:49.377Z,55.56
2018-05-09T01:20:15.537Z,55.66
2018-05-09T01:20:41.673Z,55.85
2018-05-09T01:21:07.834Z,55.85
2018-05-09T01:21:33.976Z,55.66
2018-05-09T01:22:00.103Z,55.76
2018-05-09T01:22:26.249Z,55.76
2018-05-09T01:22:52.412Z,55.66
2018-05-09T01:23:18.575Z,55.82
2018-05-09T01:23:44.713Z,55.46
2018-05-09T01:24:10.874Z,55.63
2018-05-09T01:24:37.010Z,55.73
2018-05-09T01:25:03.154Z,56.49
2018-05-09T01:25:29.291Z,56.21
2018-05-09T01:25:55.434Z,56.01
2018-05-09T01:26:21.573Z,56.11
2018-05-09T01:26:47.709Z,56.3
2018-05-09T01:27:13.900Z,55.82
2018-05-09T01:27:40.033Z,55.91
2018-05-09T01:28:06.174Z,56.4
2018-05-09T01:28:32.343Z,56.11
2018-05-09T01:28:58.497Z,56.21
2018-05-09T01:29:24.637Z,56.21
2018-05-09T01:29:50.769Z,56.3
2018-05-09T01:30:16.908Z,55.82
2018-05-09T01:30:43.056Z,56.21
2018-05-09T01:31:09.217Z,56.78
2018-05-09T01:31:35.392Z,56.3
2018-05-09T01:32:01.529Z,56.68
2018-05-09T01:32:27.671Z,56.59
2018-05-09T01:32:53.809Z,56.59
2018-05-09T01:33:19.952Z,56.59
2018-05-09T01:33:46.094Z,56.68
2018-05-09T01:34:12.236Z,56.68
2018-05-09T01:34:38.370Z,56.71
2018-05-09T01:35:04.516Z,56.23
2018-05-09T01:35:30.647Z,55.56
2018-05-09T01:35:56.784Z,56.14
2018-05-09T01:36:22.954Z,56.04
2018-05-09T01:36:49.099Z,55.56
2018-05-09T01:37:15.261Z,56.14
2018-05-09T01:37:41.405Z,56.04
2018-05-09T01:38:07.560Z,55.85
2018-05-09T01:38:33.697Z,56.14
2018-05-09T01:38:59.865Z,56.14
2018-05-09T01:39:26.034Z,56.23
2018-05-09T01:39:52.190Z,56.14
2018-05-09T01:40:18.336Z,55.76
2018-05-09T01:40:44.475Z,56.04
2018-05-09T01:41:10.616Z,56.23
2018-05-09T01:41:36.771Z,56.23
2018-05-09T01:42:02.918Z,56.23
2018-05-09T01:42:29.073Z,55.94
2018-05-09T01:42:55.217Z,55.94
2018-05-09T01:43:21.359Z,55.85
2018-05-09T01:43:47.521Z,55.76
2018-05-09T01:44:13.695Z,55.94
2018-05-09T01:44:39.852Z,56.71
2018-05-09T01:45:06.012Z,56.68
2018-05-09T01:45:32.152Z,56.59
2018-05-09T01:45:58.294Z,56.49
2018-05-09T01:46:24.451Z,56.4
2018-05-09T01:46:50.599Z,56.68
2018-05-09T01:47:16.732Z,56.88
2018-05-09T01:47:42.878Z,57.07
2018-05-09T01:48:09.045Z,56.59
2018-05-09T01:48:35.188Z,57.07
2018-05-09T01:49:01.329Z,57.26
2018-05-09T01:49:27.470Z,57.36
2018-05-09T01:49:53.600Z,57.36
2018-05-09T01:50:19.739Z,57.26
2018-05-09T01:50:45.878Z,57.84
2018-05-09T01:51:12.047Z,57.36
2018-05-09T01:51:38.188Z,58.22
2018-05-09T01:52:04.322Z,57.71
2018-05-09T01:52:30.467Z,57.9
2018-05-09T01:52:56.604Z,57.71
2018-05-09T01:53:22.751Z,58
2018-05-09T01:53:48.918Z,57.71
2018-05-09T01:54:15.091Z,58.48
2018-05-09T01:54:41.226Z,58.48
2018-05-09T01:55:07.359Z,58.29
2018-05-09T01:55:33.499Z,58.29
2018-05-09T01:55:59.636Z,58.39
2018-05-09T01:56:25.803Z,58.58
2018-05-09T01:56:51.950Z,58.67
2018-05-09T01:57:18.092Z,58.39
2018-05-09T01:57:44.231Z,59.06
2018-05-09T01:58:10.370Z,58.77
2018-05-09T01:58:36.511Z,59.06
2018-05-09T01:59:02.644Z,58.96
2018-05-09T01:59:28.782Z,58.96
2018-05-09T01:59:54.941Z,58.87
2018-05-09T02:00:21.080Z,58.67
2018-05-09T02:00:47.224Z,58.87
2018-05-09T02:01:13.356Z,59.44
2018-05-09T02:01:39.493Z,59.8
2018-05-09T02:02:05.653Z,59.61
2018-05-09T02:02:31.773Z,59.7
2018-05-09T02:02:57.919Z,59.34
2018-05-09T02:03:24.053Z,59.51
2018-05-09T02:03:50.212Z,59.32
2018-05-09T02:04:16.371Z,59.32
2018-05-09T02:04:42.510Z,59.51
2018-05-09T02:05:08.652Z,59.89
2018-05-09T02:05:34.789Z,59.7
2018-05-09T02:06:00.950Z,59.99
2018-05-09T02:06:27.064Z,60.08
2018-05-09T02:06:53.199Z,59.61
2018-05-09T02:07:19.342Z,60.47
2018-05-09T02:07:45.479Z,60.38
2018-05-09T02:08:11.622Z,60.47
2018-05-09T02:08:37.757Z,60.38
2018-05-09T02:09:03.900Z,60.47
2018-05-09T02:09:30.035Z,60.66
2018-05-09T02:09:56.169Z,60.38
2018-05-09T02:10:22.311Z,60.75
2018-05-09T02:10:48.451Z,61.05
2018-05-09T02:11:14.595Z,60.85
2018-05-09T02:11:40.733Z,61.24
2018-05-09T02:12:06.871Z,61.33
2018-05-09T02:12:33.009Z,61.05
2018-05-09T02:12:59.149Z,60.95
2018-05-09T02:13:25.297Z,61.3
2018-05-09T02:13:51.431Z,61.43
2018-05-09T02:14:17.580Z,61.33
2018-05-09T02:14:43.734Z,61.33
2018-05-09T02:15:09.872Z,61.33
2018-05-09T02:15:36.040Z,61.52
2018-05-09T02:16:02.178Z,61.33
2018-05-09T02:16:28.338Z,61.33
2018-05-09T02:16:54.477Z,61.43
2018-05-09T02:17:20.617Z,61.24
2018-05-09T02:17:46.754Z,61.24
2018-05-09T02:18:12.982Z,61.14
2018-05-09T02:18:39.146Z,61.05
2018-05-09T02:19:05.215Z,60.95
2018-05-09T02:19:31.354Z,61.05
2018-05-09T02:19:57.512Z,61.33
2018-05-09T02:20:23.653Z,60.85
2018-05-09T02:20:49.809Z,61.05
2018-05-09T02:21:15.953Z,60.28
2018-05-09T02:21:42.090Z,60.28
2018-05-09T02:22:08.234Z,60.4
2018-05-09T02:22:34.368Z,60.4
2018-05-09T02:23:00.508Z,60.6
2018-05-09T02:23:26.671Z,60.4
2018-05-09T02:23:52.813Z,59.92
2018-05-09T02:24:18.950Z,59.73
2018-05-09T02:24:45.090Z,59.54
2018-05-09T02:25:11.280Z,59.16
2018-05-09T02:25:37.418Z,59.34
2018-05-09T02:26:03.581Z,59.44
2018-05-09T02:26:29.737Z,59.64
2018-05-09T02:26:55.880Z,59.25
2018-05-09T02:27:22.045Z,59.25
2018-05-09T02:27:48.182Z,58.96
2018-05-09T02:28:14.350Z,58.87
2018-05-09T02:28:40.516Z,58.99
2018-05-09T02:29:06.653Z,58.42
2018-05-09T02:29:32.792Z,58.42
2018-05-09T02:29:58.941Z,58.8
2018-05-09T02:30:25.106Z,58.42
2018-05-09T02:30:51.263Z,58.42
2018-05-09T02:31:17.435Z,58.61
2018-05-09T02:31:43.577Z,58.61
2018-05-09T02:32:09.717Z,58.51
2018-05-09T02:32:35.848Z,58.61
2018-05-09T02:33:02.007Z,58.51
2018-05-09T02:33:28.208Z,58.61
2018-05-09T02:33:54.366Z,58.42
2018-05-09T02:34:20.551Z,58.61
2018-05-09T02:34:46.733Z,58.61
2018-05-09T02:35:12.880Z,58.22
2018-05-09T02:35:39.018Z,58.32
2018-05-09T02:36:05.157Z,58.61
2018-05-09T02:36:31.338Z,58.8
2018-05-09T02:36:57.527Z,58.42
2018-05-09T02:37:23.669Z,58.42
2018-05-09T02:37:49.863Z,58.51
2018-05-09T02:38:15.997Z,58.7
2018-05-09T02:38:42.173Z,58.77
2018-05-09T02:39:08.303Z,58.8
2018-05-09T02:39:34.467Z,58.89
2018-05-09T02:40:00.646Z,58.99
2018-05-09T02:40:26.766Z,58.8
2018-05-09T02:40:52.982Z,58.89
2018-05-09T02:41:19.116Z,58.7
2018-05-09T02:41:45.310Z,58.89
2018-05-09T02:42:11.462Z,58.61
2018-05-09T02:42:37.643Z,58.89
2018-05-09T02:43:03.777Z,58.89
2018-05-09T02:43:29.911Z,58.8
2018-05-09T02:43:56.077Z,58.99
2018-05-09T02:44:22.215Z,58.8
2018-05-09T02:44:48.408Z,58.61
2018-05-09T02:45:14.575Z,58.51
2018-05-09T02:45:40.770Z,58.32
2018-05-09T02:46:06.953Z,58.51
2018-05-09T02:46:33.134Z,58.22
2018-05-09T02:46:59.279Z,58.32
2018-05-09T02:47:25.500Z,58.32
2018-05-09T02:47:51.704Z,58.7
2018-05-09T02:48:17.864Z,58.51
2018-05-09T02:48:44.016Z,57.75
2018-05-09T02:49:10.157Z,57.93
2018-05-09T02:49:36.323Z,57.93
2018-05-09T02:50:02.698Z,57.75
2018-05-09T02:50:28.635Z,57.75
2018-05-09T02:50:54.823Z,57.65
2018-05-09T02:51:20.969Z,57.77
2018-05-09T02:51:47.124Z,57.87
2018-05-09T02:52:13.288Z,58.03
2018-05-09T02:52:39.431Z,58.06
2018-05-09T02:53:05.565Z,57.75
2018-05-09T02:53:31.709Z,58.13
2018-05-09T02:53:57.868Z,57.68
2018-05-09T02:54:24.028Z,57.75
2018-05-09T02:54:50.176Z,57.77
2018-05-09T02:55:16.310Z,57.97
2018-05-09T02:55:42.447Z,57.97
2018-05-09T02:56:08.628Z,57.87
2018-05-09T02:56:34.770Z,58.13
2018-05-09T02:57:00.933Z,58.03
2018-05-09T02:57:27.096Z,58.06
2018-05-09T02:57:53.252Z,57.97
2018-05-09T02:58:19.394Z,57.84
2018-05-09T02:58:45.590Z,57.75
2018-05-09T02:59:11.756Z,57.93
2018-05-09T02:59:37.922Z,57.75
2018-05-09T03:00:04.059Z,57.93
2018-05-09T03:00:30.209Z,57.93
2018-05-09T03:00:56.381Z,57.75
2018-05-09T03:01:22.522Z,58.42
2018-05-09T03:01:48.666Z,58.32
2018-05-09T03:02:14.803Z,58.7
2018-05-09T03:02:40.936Z,58.61
2018-05-09T03:03:07.070Z,58.67
2018-05-09T03:03:33.262Z,58.99
2018-05-09T03:03:59.404Z,59.09
2018-05-09T03:04:25.565Z,59.64
2018-05-09T03:04:51.735Z,59.73
2018-05-09T03:05:17.870Z,59.73
2018-05-09T03:05:44.024Z,59.44
2018-05-09T03:06:10.173Z,59.34
2018-05-09T03:06:36.335Z,59.34
2018-05-09T03:07:02.491Z,59.54
2018-05-09T03:07:28.628Z,59.83
2018-05-09T03:07:54.815Z,60.21
2018-05-09T03:08:20.960Z,60.21
2018-05-09T03:08:47.124Z,60.6
2018-05-09T03:09:13.296Z,60.4
2018-05-09T03:09:39.434Z,60.31
2018-05-09T03:10:05.583Z,60.31
2018-05-09T03:10:31.763Z,60.31
2018-05-09T03:10:57.901Z,60.31
2018-05-09T03:11:24.043Z,59.92
2018-05-09T03:11:50.232Z,60.78
2018-05-09T03:12:16.393Z,60.47
2018-05-09T03:12:42.555Z,61.14
2018-05-09T03:13:08.696Z,61.05
2018-05-09T03:13:34.851Z,61.24
2018-05-09T03:14:00.992Z,61.05
2018-05-09T03:14:27.149Z,60.85
2018-05-09T03:14:53.318Z,61.24
2018-05-09T03:15:19.452Z,61.43
2018-05-09T03:15:45.595Z,62.01
2018-05-09T03:16:11.754Z,62.01
2018-05-09T03:16:37.896Z,62.29
2018-05-09T03:17:04.035Z,62.58
2018-05-09T03:17:30.179Z,62.68
2018-05-09T03:17:56.312Z,62.39
2018-05-09T03:18:22.458Z,62.55
2018-05-09T03:18:48.628Z,62.84
2018-05-09T03:19:14.761Z,63.32
2018-05-09T03:19:40.891Z,63.03
2018-05-09T03:20:07.028Z,63.12
2018-05-09T03:20:33.296Z,63.7
2018-05-09T03:20:59.361Z,63.89
2018-05-09T03:21:25.524Z,63.7
2018-05-09T03:21:51.683Z,63.51
2018-05-09T03:22:17.829Z,63.7
2018-05-09T03:22:43.962Z,63.79
2018-05-09T03:23:10.103Z,63.7
2018-05-09T03:23:36.266Z,64.18
2018-05-09T03:24:02.409Z,63.89
2018-05-09T03:24:28.549Z,63.79
2018-05-09T03:24:54.690Z,63.7
2018-05-09T03:25:20.863Z,64.09
2018-05-09T03:25:47.022Z,63.79
2018-05-09T03:26:13.163Z,63.99
2018-05-09T03:26:39.310Z,64.09
2018-05-09T03:27:05.451Z,63.89
2018-05-09T03:27:31.590Z,63.99
2018-05-09T03:27:57.724Z,63.79
2018-05-09T03:28:23.863Z,64.09
2018-05-09T03:28:50.004Z,63.89
2018-05-09T03:29:16.140Z,63.6
2018-05-09T03:29:42.286Z,64.18
2018-05-09T03:30:08.457Z,63.99
2018-05-09T03:30:34.623Z,64.18
2018-05-09T03:31:00.793Z,63.99
2018-05-09T03:31:26.972Z,63.6
2018-05-09T03:31:53.116Z,63.99
2018-05-09T03:32:19.291Z,64.09
2018-05-09T03:32:45.455Z,64.47
2018-05-09T03:33:11.596Z,64.76
2018-05-09T03:33:37.738Z,64.37
2018-05-09T03:34:03.878Z,65.11
2018-05-09T03:34:30.056Z,65.23
2018-05-09T03:34:56.197Z,64.82
2018-05-09T03:35:22.336Z,64.82
2018-05-09T03:35:48.477Z,65.2
2018-05-09T03:36:14.615Z,64.92
2018-05-09T03:36:40.759Z,65.01
2018-05-09T03:37:06.911Z,64.72
2018-05-09T03:37:33.138Z,65.39
2018-05-09T03:37:59.211Z,65.49
2018-05-09T03:38:25.356Z,65.59
2018-05-09T03:38:51.491Z,66.06
2018-05-09T03:39:17.657Z,65.88
2018-05-09T03:39:43.795Z,65.68
2018-05-09T03:40:09.931Z,65.68
2018-05-09T03:40:36.080Z,65.68
2018-05-09T03:41:02.218Z,65.78
2018-05-09T03:41:28.385Z,65.88
2018-05-09T03:41:54.521Z,65.97
2018-05-09T03:42:20.691Z,65.39
2018-05-09T03:42:46.854Z,65.62
2018-05-09T03:43:12.997Z,65.23
2018-05-09T03:43:39.134Z,64.95
2018-05-09T03:44:05.293Z,64.66
2018-05-09T03:44:31.460Z,64.95
2018-05-09T03:44:57.593Z,65.14
2018-05-09T03:45:23.736Z,64.66
2018-05-09T03:45:49.874Z,64.47
2018-05-09T03:46:16.013Z,64.76
2018-05-09T03:46:42.147Z,63.99
2018-05-09T03:47:08.289Z,64.09
2018-05-09T03:47:34.434Z,64.09
2018-05-09T03:48:00.573Z,63.99
2018-05-09T03:48:26.704Z,63.99
2018-05-09T03:48:52.874Z,63.99
2018-05-09T03:49:19.014Z,63.99
2018-05-09T03:49:45.152Z,64.09
2018-05-09T03:50:11.295Z,63.89
2018-05-09T03:50:37.426Z,63.99
2018-05-09T03:51:03.573Z,63.79
2018-05-09T03:51:29.703Z,63.89
2018-05-09T03:51:55.849Z,64.66
2018-05-09T03:52:21.984Z,64.76
2018-05-09T03:52:48.126Z,64.76
2018-05-09T03:53:14.352Z,64.56
2018-05-09T03:53:40.413Z,64.95
2018-05-09T03:54:06.557Z,64.66
2018-05-09T03:54:32.695Z,64.76
2018-05-09T03:54:58.845Z,64.56
2018-05-09T03:55:24.981Z,64.47
2018-05-09T03:55:51.176Z,64.47
2018-05-09T03:56:17.313Z,64.56
2018-05-09T03:56:43.453Z,65.14
2018-05-09T03:57:09.596Z,65.05
2018-05-09T03:57:35.736Z,64.95
2018-05-09T03:58:01.882Z,65.43
2018-05-09T03:58:28.019Z,65.2
2018-05-09T03:58:54.153Z,65.3
2018-05-09T03:59:20.296Z,65.78
2018-05-09T03:59:46.447Z,65.52
2018-05-09T04:00:12.604Z,65.39
2018-05-09T04:00:38.741Z,65.3
2018-05-09T04:01:04.880Z,65.68
2018-05-09T04:01:31.033Z,65.97
2018-05-09T04:01:57.199Z,66.16
2018-05-09T04:02:23.342Z,66.16
2018-05-09T04:02:49.478Z,65.88
2018-05-09T04:03:15.650Z,65.68
2018-05-09T04:03:41.784Z,66.35
2018-05-09T04:04:07.919Z,66.64
2018-05-09T04:04:34.060Z,66.26
2018-05-09T04:05:00.192Z,66.45
2018-05-09T04:05:26.333Z,66.45
2018-05-09T04:05:52.470Z,66.35
2018-05-09T04:06:18.644Z,66.26
2018-05-09T04:06:44.785Z,67.12
2018-05-09T04:07:10.922Z,67.02
2018-05-09T04:07:37.061Z,66.64
2018-05-09T04:08:03.200Z,67.02
2018-05-09T04:08:29.361Z,67.02
2018-05-09T04:08:55.524Z,66.93
2018-05-09T04:09:21.659Z,67.76
2018-05-09T04:09:47.825Z,67.6
2018-05-09T04:10:13.958Z,67.38
2018-05-09T04:10:40.108Z,67.47
2018-05-09T04:11:06.234Z,67.66
2018-05-09T04:11:32.376Z,68.05
2018-05-09T04:11:58.521Z,67.95
2018-05-09T04:12:24.658Z,67.95
2018-05-09T04:12:50.794Z,68.24
2018-05-09T04:13:16.995Z,68.43
2018-05-09T04:13:43.165Z,68.62
2018-05-09T04:14:09.323Z,68.33
2018-05-09T04:14:35.462Z,68.52
2018-05-09T04:15:01.603Z,68.14
2018-05-09T04:15:27.740Z,68.52
2018-05-09T04:15:53.905Z,68.14
2018-05-09T04:16:20.046Z,68.62
2018-05-09T04:16:46.217Z,68.62
2018-05-09T04:17:12.360Z,68.14
2018-05-09T04:17:38.498Z,68.24
2018-05-09T04:18:04.642Z,68.43
2018-05-09T04:18:30.780Z,68.43
2018-05-09T04:18:56.913Z,68.37
2018-05-09T04:19:23.052Z,68.14
2018-05-09T04:19:49.193Z,68.46
2018-05-09T04:20:15.330Z,68.24
2018-05-09T04:20:41.565Z,68.24
2018-05-09T04:21:07.660Z,68.24
2018-05-09T04:21:33.801Z,68.14
2018-05-09T04:21:59.938Z,68.08
2018-05-09T04:22:26.077Z,67.85
2018-05-09T04:22:52.238Z,68.05
2018-05-09T04:23:18.377Z,68.52
2018-05-09T04:23:44.517Z,68.43
2018-05-09T04:24:10.675Z,68.52
2018-05-09T04:24:36.841Z,68.62
2018-05-09T04:25:02.974Z,68.52
2018-05-09T04:25:29.110Z,68.43
2018-05-09T04:25:55.262Z,68.43
2018-05-09T04:26:21.399Z,68.33
2018-05-09T04:26:47.528Z,68.72
2018-05-09T04:27:13.669Z,68.33
2018-05-09T04:27:39.811Z,68.27
2018-05-09T04:28:06.043Z,68.18
2018-05-09T04:28:32.113Z,68.08
2018-05-09T04:28:58.252Z,67.89
2018-05-09T04:29:24.387Z,68.08
2018-05-09T04:29:50.582Z,67.99
2018-05-09T04:30:16.746Z,67.99
2018-05-09T04:30:42.889Z,68.18
2018-05-09T04:31:09.054Z,68.18
2018-05-09T04:31:35.195Z,67.69
2018-05-09T04:32:01.337Z,67.5
2018-05-09T04:32:27.475Z,67.32
2018-05-09T04:32:53.615Z,67.32
2018-05-09T04:33:19.757Z,67.41
2018-05-09T04:33:45.897Z,67.02
2018-05-09T04:34:12.035Z,66.64
2018-05-09T04:34:38.201Z,67.02
2018-05-09T04:35:04.337Z,67.02
2018-05-09T04:35:30.500Z,67.22
2018-05-09T04:35:56.641Z,66.19
2018-05-09T04:36:22.800Z,66.06
2018-05-09T04:36:48.936Z,66.49
2018-05-09T04:37:15.078Z,66.55
2018-05-09T04:37:41.218Z,66.35
2018-05-09T04:38:07.360Z,66.45
2018-05-09T04:38:33.538Z,66.45
2018-05-09T04:38:59.675Z,67.22
2018-05-09T04:39:25.820Z,66.55
2018-05-09T04:39:51.958Z,66.83
2018-05-09T04:40:18.099Z,66.74
2018-05-09T04:40:44.257Z,67.02
2018-05-09T04:41:10.414Z,67.69
2018-05-09T04:41:36.610Z,67.41
2018-05-09T04:42:02.794Z,67.79
2018-05-09T04:42:28.922Z,67.41
2018-05-09T04:42:55.063Z,67.99
2018-05-09T04:43:21.195Z,68.27
2018-05-09T04:43:47.340Z,68.46
2018-05-09T04:44:13.483Z,68.66
2018-05-09T04:44:39.621Z,68.56
2018-05-09T04:45:05.767Z,68.56
2018-05-09T04:45:31.923Z,68.52
2018-05-09T04:45:58.059Z,68.66
2018-05-09T04:46:24.202Z,68.46
2018-05-09T04:46:50.337Z,68.27
2018-05-09T04:47:16.479Z,68.18
2018-05-09T04:47:42.672Z,68.18
2018-05-09T04:48:08.813Z,68.18
2018-05-09T04:48:34.949Z,68.27
2018-05-09T04:49:01.094Z,68.37
2018-05-09T04:49:27.261Z,68.46
2018-05-09T04:49:53.404Z,68.08
2018-05-09T04:50:19.541Z,68.27
2018-05-09T04:50:45.682Z,68.18
2018-05-09T04:51:11.824Z,68.37
2018-05-09T04:51:37.962Z,68.18
2018-05-09T04:52:04.105Z,68.18
2018-05-09T04:52:30.246Z,67.99
2018-05-09T04:52:56.378Z,68.18
2018-05-09T04:53:22.519Z,68.27
2018-05-09T04:53:48.652Z,68.18
2018-05-09T04:54:14.795Z,68.46
2018-05-09T04:54:40.929Z,68.37
2018-05-09T04:55:07.074Z,68.37
2018-05-09T04:55:33.302Z,68.18
2018-05-09T04:55:59.367Z,68.56
2018-05-09T04:56:25.512Z,68.95
2018-05-09T04:56:51.682Z,68.95
2018-05-09T04:57:17.819Z,69.04
2018-05-09T04:57:43.964Z,68.56
2018-05-09T04:58:10.106Z,68.56
2018-05-09T04:58:36.273Z,68.56
2018-05-09T04:59:02.446Z,67.99
2018-05-09T04:59:28.586Z,68.46
2018-05-09T04:59:54.731Z,68.27
2018-05-09T05:00:20.863Z,67.89
2018-05-09T05:00:47.008Z,67.99
2018-05-09T05:01:13.150Z,67.92
2018-05-09T05:01:39.317Z,67.6
2018-05-09T05:02:05.455Z,67.63
2018-05-09T05:02:31.603Z,67.54
2018-05-09T05:02:57.741Z,67.63
2018-05-09T05:03:23.887Z,67.5
2018-05-09T05:03:50.027Z,67.25
2018-05-09T05:04:16.166Z,67.41
2018-05-09T05:04:42.308Z,67.16
2018-05-09T05:05:08.466Z,67.12
2018-05-09T05:05:34.607Z,67.44
2018-05-09T05:06:00.740Z,67.32
2018-05-09T05:06:26.879Z,67.6
2018-05-09T05:06:53.068Z,67.54
2018-05-09T05:07:19.205Z,67.63
2018-05-09T05:07:45.372Z,67.44
2018-05-09T05:08:11.511Z,67.63
2018-05-09T05:08:37.671Z,67.54
2018-05-09T05:09:03.816Z,67.54
2018-05-09T05:09:29.971Z,67.44
2018-05-09T05:09:56.109Z,67.35
2018-05-09T05:10:22.277Z,67.41
2018-05-09T05:10:48.443Z,67.35
2018-05-09T05:11:14.576Z,67.35
2018-05-09T05:11:40.718Z,67.22
2018-05-09T05:12:06.873Z,67.5
2018-05-09T05:12:33.015Z,67.32
2018-05-09T05:12:59.183Z,67.41
2018-05-09T05:13:25.328Z,67.54
2018-05-09T05:13:51.499Z,67.32
2018-05-09T05:14:17.635Z,67.83
2018-05-09T05:14:43.763Z,67.54
2018-05-09T05:15:09.907Z,67.32
2018-05-09T05:15:36.046Z,67.54
2018-05-09T05:16:02.177Z,67.6
2018-05-09T05:16:28.344Z,67.35
2018-05-09T05:16:54.515Z,66.96
2018-05-09T05:17:20.659Z,66.58
2018-05-09T05:17:46.794Z,66.86
2018-05-09T05:18:12.932Z,67.06
2018-05-09T05:18:39.073Z,66.96
2018-05-09T05:19:05.215Z,66.1
2018-05-09T05:19:31.368Z,66.49
2018-05-09T05:19:57.514Z,66.49
2018-05-09T05:20:23.653Z,66.77
2018-05-09T05:20:49.784Z,66.49
2018-05-09T05:21:15.954Z,65.91
2018-05-09T05:21:42.100Z,65.72
2018-05-09T05:22:08.229Z,66.58
2018-05-09T05:22:34.367Z,66.49
2018-05-09T05:23:00.502Z,65.91
2018-05-09T05:23:26.648Z,66.03
2018-05-09T05:23:52.781Z,66.29
2018-05-09T05:24:18.921Z,66.13
2018-05-09T05:24:45.087Z,66.03
2018-05-09T05:25:11.216Z,65.94
2018-05-09T05:25:37.379Z,65.75
2018-05-09T05:26:03.524Z,65.75
2018-05-09T05:26:29.653Z,65.17
2018-05-09T05:26:55.794Z,65.17
2018-05-09T05:27:21.929Z,64.89
2018-05-09T05:27:48.073Z,65.08
2018-05-09T05:28:14.232Z,64.98
2018-05-09T05:28:40.379Z,64.4
2018-05-09T05:29:06.539Z,65.08
2018-05-09T05:29:32.681Z,64.59
2018-05-09T05:29:58.820Z,64.59
2018-05-09T05:30:24.962Z,64.31
2018-05-09T05:30:51.105Z,64.4
2018-05-09T05:31:17.239Z,64.4
2018-05-09T05:31:43.384Z,64.31
2018-05-09T05:32:09.545Z,63.83
2018-05-09T05:32:35.686Z,63.64
2018-05-09T05:33:01.842Z,64.12
2018-05-09T05:33:27.993Z,63.67
2018-05-09T05:33:54.138Z,63.83
2018-05-09T05:34:20.300Z,64.02
2018-05-09T05:34:46.435Z,64.12
2018-05-09T05:35:12.581Z,63.83
2018-05-09T05:35:38.737Z,64.34
2018-05-09T05:36:04.909Z,64.05
2018-05-09T05:36:31.046Z,63.96
2018-05-09T05:36:57.211Z,63.96
2018-05-09T05:37:23.377Z,63.96